Time;durP1;ratioP1;P1;durP2;ratioP2;P2;SDS_P1;SDS_P2;PMS_P1;PMS_P2;Temp;Humidity;BMP_temperature;BMP_pressure;BME280_temperature;BME280_humidity;BME280_pressure;Samples;Min_cycle;Max_cycle;Signal;HPM_P1;HPM_P2
2023/12/24 00:01:33;;;;;;;0.70;0.25;;;9.70;99.90;;;;;;5018979;28;20022;-65
2023/12/24 00:03:58;;;;;;;0.70;0.30;;;9.70;99.90;;;;;;5018322;28;20022;-65
2023/12/24 00:06:23;;;;;;;0.60;0.50;;;9.70;99.90;;;;;;5018845;28;20105;-65
2023/12/24 00:08:49;;;;;;;0.10;0.10;;;9.70;99.90;;;;;;5019269;28;20033;-65
2023/12/24 00:11:15;;;;;;;2.75;0.40;;;9.70;99.90;;;;;;5018346;28;20026;-65
2023/12/24 00:13:40;;;;;;;0.40;0.40;;;9.70;99.90;;;;;;5019493;28;20062;-65
2023/12/24 00:16:06;;;;;;;0.85;0.38;;;9.70;99.90;;;;;;5019141;28;20109;-65
2023/12/24 00:18:32;;;;;;;1.45;0.40;;;9.70;99.90;;;;;;5018926;28;20148;-65
2023/12/24 00:20:57;;;;;;;0.68;0.30;;;9.70;99.90;;;;;;5019061;28;20072;-66
2023/12/24 00:23:23;;;;;;;0.98;0.20;;;9.70;99.90;;;;;;5018827;28;20041;-65
2023/12/24 00:25:48;;;;;;;2.67;0.50;;;9.70;99.90;;;;;;5018163;28;20049;-65
2023/12/24 00:28:14;;;;;;;0.65;0.25;;;9.70;99.90;;;;;;5018890;28;20046;-65
2023/12/24 00:30:39;;;;;;;0.90;0.30;;;9.60;99.90;;;;;;5019054;28;20018;-65
2023/12/24 00:33:05;;;;;;;0.40;0.20;;;9.70;99.90;;;;;;5002068;28;20037;-72
2023/12/24 00:35:32;;;;;;;0.57;0.20;;;9.60;99.90;;;;;;4999448;28;20022;-72
2023/12/24 00:37:58;;;;;;;1.98;0.45;;;9.70;99.90;;;;;;4999352;28;20022;-71
2023/12/24 00:40:24;;;;;;;0.68;0.40;;;9.60;99.90;;;;;;4999204;28;20064;-71
2023/12/24 00:42:50;;;;;;;0.65;0.32;;;9.60;99.90;;;;;;4999506;28;20069;-72
2023/12/24 00:45:16;;;;;;;2.92;0.30;;;9.60;99.90;;;;;;4998197;28;20015;-70
2023/12/24 00:47:41;;;;;;;1.48;0.20;;;9.60;99.90;;;;;;4998153;28;20034;-70
2023/12/24 00:50:08;;;;;;;1.33;0.30;;;9.60;99.90;;;;;;4999253;28;20037;-70
2023/12/24 00:52:34;;;;;;;0.52;0.30;;;9.60;99.90;;;;;;4998330;28;20031;-70
2023/12/24 00:55:00;;;;;;;0.20;0.20;;;9.50;99.90;;;;;;4998433;28;20026;-70
2023/12/24 00:57:26;;;;;;;0.90;0.30;;;9.50;99.90;;;;;;4999162;28;20034;-71
2023/12/24 00:59:51;;;;;;;0.65;0.30;;;9.50;99.90;;;;;;4997578;28;20042;-73
2023/12/24 01:02:17;;;;;;;0.40;0.30;;;9.50;99.90;;;;;;4998882;28;20022;-65
2023/12/24 01:04:43;;;;;;;2.35;0.40;;;9.60;99.90;;;;;;4997854;28;20030;-66
2023/12/24 01:07:09;;;;;;;0.65;0.17;;;9.60;99.90;;;;;;4997719;28;20121;-73
2023/12/24 01:09:37;;;;;;;0.95;0.20;;;9.60;99.90;;;;;;4998584;28;20076;-73
2023/12/24 01:12:03;;;;;;;0.52;0.20;;;9.60;99.90;;;;;;4998906;28;20103;-73
2023/12/24 01:14:29;;;;;;;1.30;0.20;;;9.60;99.90;;;;;;4997090;28;20122;-73
2023/12/24 01:16:54;;;;;;;0.55;0.30;;;9.60;99.90;;;;;;4997860;28;20046;-73
2023/12/24 01:19:20;;;;;;;0.22;0.22;;;9.60;99.90;;;;;;4998476;28;20101;-73
2023/12/24 01:21:46;;;;;;;0.88;0.20;;;9.70;99.90;;;;;;4997694;28;20022;-73
2023/12/24 01:24:12;;;;;;;0.65;0.15;;;9.60;99.90;;;;;;4998638;28;20026;-73
2023/12/24 01:26:39;;;;;;;0.40;0.17;;;9.70;99.90;;;;;;4998330;28;20026;-65
2023/12/24 01:29:04;;;;;;;0.70;0.28;;;9.70;99.90;;;;;;4998669;28;20022;-65
2023/12/24 01:31:30;;;;;;;1.83;0.20;;;9.70;99.90;;;;;;4997371;28;20033;-65
2023/12/24 01:33:55;;;;;;;3.03;0.25;;;9.70;99.90;;;;;;4997121;28;20018;-65
2023/12/24 01:36:21;;;;;;;0.52;0.20;;;9.70;99.90;;;;;;4998423;28;20097;-65
2023/12/24 01:38:48;;;;;;;1.23;0.10;;;9.70;99.90;;;;;;4996950;28;20026;-65
2023/12/24 01:41:14;;;;;;;1.05;0.13;;;9.80;99.90;;;;;;4998060;28;20054;-65
2023/12/24 01:43:43;;;;;;;3.47;0.20;;;9.80;99.90;;;;;;4998314;28;20034;-65
2023/12/24 01:46:09;;;;;;;0.45;0.20;;;9.80;99.90;;;;;;4998146;28;20086;-65
2023/12/24 01:48:36;;;;;;;0.25;0.20;;;9.80;99.90;;;;;;4997049;28;20026;-65
2023/12/24 01:51:02;;;;;;;0.35;0.20;;;9.80;99.90;;;;;;4997884;28;20081;-66
2023/12/24 01:53:29;;;;;;;0.20;0.20;;;9.80;99.90;;;;;;4996874;28;20033;-65
2023/12/24 01:55:54;;;;;;;0.73;0.22;;;9.80;99.90;;;;;;4997435;28;20096;-65
2023/12/24 01:58:20;;;;;;;1.45;0.47;;;9.90;99.90;;;;;;4996817;28;20034;-66
2023/12/24 02:00:47;;;;;;;0.00;0.00;;;9.90;99.90;;;;;;4997333;28;20061;-72
2023/12/24 02:03:13;;;;;;;0.38;0.20;;;10.00;99.90;;;;;;4997083;28;20092;-73
2023/12/24 02:05:40;;;;;;;0.25;0.10;;;10.00;99.90;;;;;;4997748;28;20025;-65
2023/12/24 02:08:07;;;;;;;0.47;0.10;;;10.00;99.90;;;;;;4997314;28;20030;-65
2023/12/24 02:10:33;;;;;;;0.22;0.10;;;10.00;99.90;;;;;;4996734;28;20050;-65
2023/12/24 02:12:59;;;;;;;0.25;0.10;;;10.00;99.90;;;;;;4997695;28;20069;-65
2023/12/24 02:15:50;;;;;;;0.65;0.10;;;10.00;99.90;;;;;;4996722;28;20084;-70
2023/12/24 02:18:16;;;;;;;2.28;0.20;;;10.00;99.90;;;;;;4997441;28;20029;-70
2023/12/24 02:20:42;;;;;;;0.13;0.10;;;10.10;99.90;;;;;;4996928;28;20034;-70
2023/12/24 02:23:07;;;;;;;0.80;0.10;;;10.10;99.90;;;;;;4997495;28;20106;-70
2023/12/24 02:25:33;;;;;;;0.30;0.10;;;10.10;99.90;;;;;;4998622;28;20019;-70
2023/12/24 02:28:09;;;;;;;0.90;0.10;;;10.10;99.90;;;;;;5001004;28;20022;-66
2023/12/24 02:30:42;;;;;;;0.28;0.00;;;10.10;99.90;;;;;;5000970;28;20026;-66
2023/12/24 02:33:10;;;;;;;2.67;0.40;;;10.10;99.90;;;;;;5014273;28;20053;-66
2023/12/24 02:35:38;;;;;;;0.10;0.05;;;10.10;99.90;;;;;;5020181;28;20025;-66
2023/12/24 02:38:03;;;;;;;0.28;0.25;;;10.10;99.90;;;;;;5020931;28;20022;-66
2023/12/24 02:40:29;;;;;;;0.63;0.47;;;10.10;99.90;;;;;;5020111;28;20025;-66
2023/12/24 02:42:54;;;;;;;0.47;0.25;;;10.10;99.90;;;;;;5020937;28;20030;-65
2023/12/24 02:45:20;;;;;;;0.55;0.35;;;10.10;99.90;;;;;;5019953;28;20060;-65
2023/12/24 02:47:46;;;;;;;0.38;0.10;;;10.10;99.90;;;;;;5019986;28;20021;-65
2023/12/24 02:50:11;;;;;;;0.03;0.03;;;10.00;99.90;;;;;;5020771;28;20029;-66
2023/12/24 02:52:37;;;;;;;0.82;0.10;;;10.00;99.90;;;;;;5021240;28;20030;-65
2023/12/24 02:55:03;;;;;;;0.00;0.00;;;10.00;99.90;;;;;;5019881;28;20026;-72
2023/12/24 02:57:29;;;;;;;0.17;0.10;;;10.00;99.90;;;;;;5020659;28;20109;-72
2023/12/24 02:59:55;;;;;;;0.10;0.10;;;10.00;99.90;;;;;;5020112;28;20034;-71
2023/12/24 03:02:20;;;;;;;0.20;0.10;;;10.00;99.90;;;;;;5020572;28;20117;-70
2023/12/24 03:04:46;;;;;;;0.40;0.10;;;10.00;99.90;;;;;;5022998;28;20022;-72
2023/12/24 03:07:12;;;;;;;0.15;0.10;;;10.00;99.90;;;;;;5026110;28;20026;-70
2023/12/24 03:09:38;;;;;;;0.17;0.00;;;10.00;99.90;;;;;;5023355;28;20033;-70
2023/12/24 03:12:05;;;;;;;0.10;0.10;;;10.00;99.90;;;;;;5022660;28;20022;-70
2023/12/24 03:14:30;;;;;;;0.38;0.13;;;10.00;99.90;;;;;;5023044;28;20028;-72
2023/12/24 03:16:56;;;;;;;0.60;0.38;;;9.90;99.90;;;;;;5023444;28;20061;-65
2023/12/24 03:19:21;;;;;;;0.50;0.30;;;9.90;99.90;;;;;;5020142;28;20018;-65
2023/12/24 03:21:47;;;;;;;2.38;0.10;;;10.00;99.90;;;;;;5019893;28;20107;-65
2023/12/24 03:24:12;;;;;;;0.15;0.15;;;10.00;99.90;;;;;;5019631;28;20029;-65
2023/12/24 03:26:38;;;;;;;0.00;0.00;;;10.00;99.90;;;;;;5019585;28;20052;-73
2023/12/24 03:29:05;;;;;;;3.00;0.35;;;10.00;99.90;;;;;;5019501;28;20044;-71
2023/12/24 03:31:30;;;;;;;0.10;0.10;;;10.00;99.90;;;;;;5019526;28;20017;-71
2023/12/24 03:33:56;;;;;;;0.10;0.10;;;10.10;99.90;;;;;;5019386;28;20049;-71
2023/12/24 03:36:22;;;;;;;0.10;0.10;;;10.10;99.90;;;;;;5018323;28;20125;-70
2023/12/24 03:38:47;;;;;;;0.10;0.10;;;10.10;99.90;;;;;;5018402;28;20026;-70
2023/12/24 03:41:13;;;;;;;0.65;0.10;;;10.10;99.90;;;;;;5019210;28;20168;-70
2023/12/24 03:43:39;;;;;;;0.10;0.10;;;10.20;99.90;;;;;;5020070;28;20025;-70
2023/12/24 03:46:04;;;;;;;0.40;0.20;;;10.10;99.90;;;;;;5020072;28;20026;-66
2023/12/24 03:48:35;;;;;;;0.47;0.13;;;10.10;99.90;;;;;;5018659;28;20030;-70
2023/12/24 03:51:01;;;;;;;0.20;0.10;;;10.10;99.90;;;;;;5018918;28;20124;-70
2023/12/24 03:53:26;;;;;;;0.57;0.40;;;10.10;99.90;;;;;;5018884;28;20168;-70
2023/12/24 03:55:52;;;;;;;1.70;0.20;;;10.10;99.90;;;;;;5019865;28;20041;-65
2023/12/24 03:58:17;;;;;;;0.10;0.10;;;10.10;99.90;;;;;;5018835;28;20053;-65
2023/12/24 04:00:43;;;;;;;0.55;0.20;;;10.10;99.90;;;;;;5019046;28;20029;-65
2023/12/24 04:03:08;;;;;;;0.20;0.20;;;10.10;99.90;;;;;;5018586;28;20014;-65
2023/12/24 04:05:34;;;;;;;1.48;0.22;;;10.10;99.90;;;;;;5018529;28;20092;-66
2023/12/24 04:07:59;;;;;;;1.45;0.20;;;10.10;99.90;;;;;;5018366;28;20025;-65
2023/12/24 04:10:25;;;;;;;0.28;0.28;;;10.10;99.90;;;;;;5018628;28;20057;-65
2023/12/24 04:12:51;;;;;;;1.42;0.77;;;10.10;99.90;;;;;;5019134;28;20022;-65
2023/12/24 04:15:16;;;;;;;0.57;0.30;;;10.20;99.90;;;;;;5019399;28;20029;-66
2023/12/24 04:17:42;;;;;;;0.65;0.20;;;10.10;99.90;;;;;;5019079;28;20049;-65
2023/12/24 04:20:07;;;;;;;0.20;0.20;;;10.00;99.90;;;;;;5018196;28;20022;-65
2023/12/24 04:22:33;;;;;;;0.10;0.10;;;10.00;99.90;;;;;;5018546;28;20022;-66
2023/12/24 04:24:59;;;;;;;0.70;0.30;;;9.90;99.90;;;;;;5018322;28;20025;-65
2023/12/24 04:27:25;;;;;;;1.90;0.25;;;9.90;99.90;;;;;;5018047;28;20064;-66
2023/12/24 04:29:51;;;;;;;0.63;0.55;;;9.80;99.90;;;;;;5018891;28;20080;-65
2023/12/24 04:32:19;;;;;;;1.27;0.40;;;9.70;99.90;;;;;;5014651;28;20033;-66
2023/12/24 04:34:45;;;;;;;0.40;0.40;;;9.60;99.90;;;;;;5018808;28;20026;-66
2023/12/24 04:37:10;;;;;;;3.03;0.38;;;9.60;99.90;;;;;;5018999;28;20116;-66
2023/12/24 04:39:36;;;;;;;0.30;0.25;;;9.50;99.90;;;;;;5018776;28;20029;-66
2023/12/24 04:42:02;;;;;;;0.30;0.30;;;9.50;99.90;;;;;;5018727;28;20096;-66
2023/12/24 04:44:27;;;;;;;3.03;0.52;;;9.50;99.90;;;;;;5018661;28;20038;-72
2023/12/24 04:46:53;;;;;;;1.10;0.43;;;9.50;99.90;;;;;;5017772;28;20118;-71
2023/12/24 04:49:19;;;;;;;1.00;0.40;;;9.50;99.90;;;;;;5018411;28;20026;-70
2023/12/24 04:51:45;;;;;;;0.45;0.38;;;9.40;99.90;;;;;;5018785;28;20041;-66
2023/12/24 04:54:11;;;;;;;1.27;0.40;;;9.40;99.90;;;;;;5018567;28;20022;-72
2023/12/24 04:56:36;;;;;;;2.22;0.73;;;9.40;99.90;;;;;;5017837;28;20048;-72
2023/12/24 04:59:02;;;;;;;1.80;0.50;;;9.40;99.90;;;;;;5017548;28;20100;-71
2023/12/24 05:01:27;;;;;;;0.73;0.50;;;9.40;99.90;;;;;;5018462;28;20026;-72
2023/12/24 05:03:53;;;;;;;2.67;0.70;;;9.40;99.90;;;;;;5018650;28;20026;-72
2023/12/24 05:06:19;;;;;;;0.65;0.47;;;9.40;99.90;;;;;;5017404;28;20026;-72
2023/12/24 05:08:44;;;;;;;3.85;0.70;;;9.40;99.90;;;;;;5018138;28;20022;-72
2023/12/24 05:11:10;;;;;;;3.58;0.50;;;9.40;99.90;;;;;;5018182;28;20110;-72
2023/12/24 05:13:36;;;;;;;1.13;0.50;;;9.40;99.90;;;;;;5017315;28;20032;-72
2023/12/24 05:16:02;;;;;;;1.90;0.50;;;9.40;99.90;;;;;;5018433;28;20044;-65
2023/12/24 05:18:28;;;;;;;0.90;0.50;;;9.30;99.90;;;;;;5018507;28;20022;-66
2023/12/24 05:20:54;;;;;;;0.65;0.43;;;9.30;99.90;;;;;;5017425;28;20025;-72
2023/12/24 05:23:21;;;;;;;0.70;0.63;;;9.20;99.90;;;;;;5018070;28;20018;-72
2023/12/24 05:25:47;;;;;;;2.53;0.50;;;9.30;99.90;;;;;;5018258;28;20114;-72
2023/12/24 05:28:13;;;;;;;1.90;0.40;;;9.30;99.90;;;;;;5018465;28;20080;-72
2023/12/24 05:30:38;;;;;;;1.20;0.38;;;9.30;99.90;;;;;;5017824;28;20030;-72
2023/12/24 05:33:04;;;;;;;0.40;0.32;;;9.40;99.90;;;;;;5017820;28;20087;-72
2023/12/24 05:35:29;;;;;;;0.90;0.50;;;9.40;99.90;;;;;;5017172;28;20032;-72
2023/12/24 05:37:55;;;;;;;1.42;0.47;;;9.30;99.90;;;;;;5016796;28;20029;-72
2023/12/24 05:40:20;;;;;;;2.50;0.60;;;9.40;99.90;;;;;;5016827;28;20018;-72
2023/12/24 05:42:46;;;;;;;1.10;0.38;;;9.40;99.90;;;;;;5017877;28;20030;-72
2023/12/24 05:45:12;;;;;;;0.95;0.50;;;9.40;99.90;;;;;;5016761;28;20049;-72
2023/12/24 05:47:38;;;;;;;0.40;0.28;;;9.40;99.90;;;;;;5017831;28;20022;-65
2023/12/24 05:50:05;;;;;;;1.08;0.40;;;9.40;99.90;;;;;;5016472;28;20025;-65
2023/12/24 05:52:31;;;;;;;0.60;0.38;;;9.40;99.90;;;;;;5016579;28;20117;-65
2023/12/24 05:54:56;;;;;;;2.22;0.30;;;9.40;99.90;;;;;;5016796;28;20113;-70
2023/12/24 05:57:22;;;;;;;0.68;0.47;;;9.30;99.90;;;;;;5016556;28;20061;-70
2023/12/24 05:59:47;;;;;;;0.32;0.20;;;9.30;99.90;;;;;;5015849;28;20048;-70
2023/12/24 06:02:13;;;;;;;0.20;0.20;;;9.40;99.90;;;;;;5016696;28;20064;-72
2023/12/24 06:04:39;;;;;;;0.30;0.20;;;9.40;99.90;;;;;;5016946;28;20022;-72
2023/12/24 06:07:05;;;;;;;0.13;0.13;;;9.30;99.90;;;;;;5017957;28;20032;-72
2023/12/24 06:09:31;;;;;;;0.55;0.20;;;9.40;99.90;;;;;;5016464;28;20022;-72
2023/12/24 06:11:57;;;;;;;0.20;0.20;;;9.40;99.90;;;;;;5016450;28;20022;-66
2023/12/24 06:14:22;;;;;;;0.20;0.20;;;9.40;99.90;;;;;;5017215;28;20117;-66
2023/12/24 06:16:48;;;;;;;0.88;0.30;;;9.40;99.90;;;;;;5016195;28;20080;-65
2023/12/24 06:19:13;;;;;;;0.22;0.20;;;9.40;99.90;;;;;;5016125;28;20030;-65
2023/12/24 06:21:39;;;;;;;1.42;0.20;;;9.30;99.90;;;;;;5016534;28;20022;-65
2023/12/24 06:24:05;;;;;;;0.20;0.20;;;9.30;99.90;;;;;;5016246;28;20034;-65
2023/12/24 06:26:32;;;;;;;0.10;0.10;;;9.40;99.90;;;;;;5016623;28;20018;-65
2023/12/24 06:28:58;;;;;;;0.20;0.20;;;9.40;99.90;;;;;;5016783;28;20034;-72
2023/12/24 06:31:24;;;;;;;1.55;0.20;;;9.40;99.90;;;;;;5017059;28;20072;-72
2023/12/24 06:33:49;;;;;;;0.10;0.03;;;9.40;99.90;;;;;;5004215;28;20038;-72
2023/12/24 06:36:16;;;;;;;0.10;0.10;;;9.40;99.90;;;;;;4996879;28;20023;-72
2023/12/24 06:38:41;;;;;;;1.05;0.05;;;9.30;99.90;;;;;;4996493;28;20053;-72
2023/12/24 06:41:07;;;;;;;0.28;0.10;;;9.30;99.90;;;;;;4996481;28;20023;-65
2023/12/24 06:43:33;;;;;;;0.10;0.10;;;9.30;99.90;;;;;;4996540;28;20034;-65
2023/12/24 06:45:58;;;;;;;0.30;0.30;;;9.30;99.90;;;;;;4996773;28;20022;-65
2023/12/24 06:48:24;;;;;;;0.30;0.10;;;9.30;99.90;;;;;;4997209;28;20049;-65
2023/12/24 06:50:49;;;;;;;0.10;0.10;;;9.30;99.90;;;;;;4997121;28;20046;-66
2023/12/24 06:53:15;;;;;;;0.22;0.10;;;9.40;99.90;;;;;;4996488;28;20030;-66
2023/12/24 06:55:41;;;;;;;0.30;0.20;;;9.40;99.90;;;;;;4997174;28;20057;-72
2023/12/24 06:58:06;;;;;;;0.00;0.00;;;9.40;99.90;;;;;;4996627;28;20045;-72
2023/12/24 07:00:33;;;;;;;0.30;0.20;;;9.40;99.90;;;;;;4996290;28;20058;-72
2023/12/24 07:02:59;;;;;;;0.93;0.28;;;9.30;99.90;;;;;;4997047;28;20050;-72
2023/12/24 07:05:24;;;;;;;0.10;0.00;;;9.30;99.90;;;;;;4997225;28;20026;-72
2023/12/24 07:07:50;;;;;;;0.90;0.20;;;9.40;99.90;;;;;;4996578;28;20027;-72
2023/12/24 07:10:15;;;;;;;0.20;0.20;;;9.30;99.90;;;;;;4999597;28;20033;-72
2023/12/24 07:12:41;;;;;;;0.20;0.05;;;9.40;99.90;;;;;;4999316;28;20061;-72
2023/12/24 07:15:07;;;;;;;0.05;0.05;;;9.30;99.90;;;;;;4999833;28;20030;-72
2023/12/24 07:17:33;;;;;;;0.13;0.10;;;9.30;99.90;;;;;;5000280;28;20106;-72
2023/12/24 07:19:59;;;;;;;0.10;0.00;;;9.40;99.90;;;;;;4999700;28;20027;-72
2023/12/24 07:22:25;;;;;;;0.25;0.10;;;9.40;99.90;;;;;;5000654;28;20061;-73
2023/12/24 07:24:51;;;;;;;0.10;0.10;;;9.40;99.90;;;;;;5002665;28;20019;-72
2023/12/24 07:27:17;;;;;;;1.10;0.10;;;9.40;99.90;;;;;;5000695;28;20085;-72
2023/12/24 07:29:42;;;;;;;1.02;0.20;;;9.40;99.90;;;;;;4999920;28;20135;-72
2023/12/24 07:32:08;;;;;;;0.60;0.30;;;9.40;99.90;;;;;;4999835;28;20030;-73
2023/12/24 07:34:34;;;;;;;0.00;0.00;;;9.40;99.90;;;;;;4999667;28;20054;-73
2023/12/24 07:37:00;;;;;;;0.20;0.10;;;9.40;99.90;;;;;;4999857;28;20052;-73
2023/12/24 07:39:25;;;;;;;0.00;0.00;;;9.40;99.90;;;;;;4999721;28;20057;-73
2023/12/24 07:41:51;;;;;;;0.20;0.10;;;9.40;99.90;;;;;;5000488;28;20026;-72
2023/12/24 07:44:17;;;;;;;0.20;0.20;;;9.40;99.90;;;;;;4999819;28;20023;-72
2023/12/24 07:46:44;;;;;;;0.25;0.10;;;9.30;99.90;;;;;;5000108;28;20033;-72
2023/12/24 07:49:09;;;;;;;0.10;0.10;;;9.40;99.90;;;;;;4999570;28;20031;-72
2023/12/24 07:51:35;;;;;;;0.10;0.08;;;9.30;99.90;;;;;;4999522;28;20022;-72
2023/12/24 07:54:03;;;;;;;0.30;0.00;;;9.40;99.90;;;;;;5000439;28;20039;-72
2023/12/24 07:56:29;;;;;;;0.20;0.00;;;9.30;99.90;;;;;;4999193;28;20026;-72
2023/12/24 07:58:55;;;;;;;0.30;0.00;;;9.30;99.90;;;;;;4998870;28;20057;-72
2023/12/24 08:01:21;;;;;;;0.35;0.20;;;9.30;99.90;;;;;;4999096;28;20082;-72
2023/12/24 08:03:46;;;;;;;0.22;0.20;;;9.30;99.90;;;;;;4998974;28;20025;-72
2023/12/24 08:06:12;;;;;;;0.00;0.00;;;9.30;99.90;;;;;;4999379;28;20034;-72
2023/12/24 08:08:38;;;;;;;0.10;0.10;;;9.30;99.90;;;;;;4999230;28;20031;-72
2023/12/24 08:11:03;;;;;;;0.25;0.05;;;9.30;99.90;;;;;;4998910;28;20036;-72
2023/12/24 08:13:29;;;;;;;0.10;0.10;;;9.30;99.90;;;;;;4999169;28;20049;-72
2023/12/24 08:15:55;;;;;;;0.00;0.00;;;9.30;99.90;;;;;;5000492;28;20062;-73
2023/12/24 08:18:20;;;;;;;1.55;0.10;;;9.30;99.90;;;;;;4998583;28;20022;-72
2023/12/24 08:20:46;;;;;;;0.10;0.10;;;9.30;99.90;;;;;;4999030;28;20026;-72
2023/12/24 08:23:12;;;;;;;0.25;0.15;;;9.40;99.90;;;;;;4998282;28;20035;-72
2023/12/24 08:25:37;;;;;;;0.22;0.20;;;9.40;99.90;;;;;;4999402;28;20030;-73
2023/12/24 08:28:05;;;;;;;0.30;0.20;;;9.40;99.90;;;;;;4998965;28;20117;-73
2023/12/24 08:30:31;;;;;;;0.10;0.10;;;9.40;99.90;;;;;;4998783;28;20028;-72
2023/12/24 08:32:57;;;;;;;0.47;0.20;;;9.50;99.90;;;;;;5001033;28;20092;-72
2023/12/24 08:35:22;;;;;;;0.38;0.20;;;9.50;99.90;;;;;;4998928;28;20022;-72
2023/12/24 08:37:48;;;;;;;0.80;0.20;;;9.50;99.90;;;;;;4998357;28;20117;-72
2023/12/24 08:40:14;;;;;;;0.00;0.00;;;9.60;99.90;;;;;;4998402;28;20022;-72
2023/12/24 08:42:40;;;;;;;0.15;0.10;;;9.60;99.90;;;;;;4998551;28;20026;-72
2023/12/24 08:45:06;;;;;;;0.38;0.20;;;9.60;99.90;;;;;;4998488;28;20030;-72
2023/12/24 08:47:31;;;;;;;0.10;0.10;;;9.60;99.90;;;;;;4998527;28;20057;-73
2023/12/24 08:49:57;;;;;;;0.20;0.10;;;9.60;99.90;;;;;;4998123;28;20081;-72
2023/12/24 08:52:23;;;;;;;0.00;0.00;;;9.60;99.90;;;;;;4999148;28;20029;-72
2023/12/24 08:54:48;;;;;;;0.40;0.15;;;9.60;99.90;;;;;;4998881;28;20030;-73
2023/12/24 08:57:14;;;;;;;0.38;0.30;;;9.70;99.90;;;;;;4997882;28;20053;-73
2023/12/24 08:59:40;;;;;;;0.40;0.25;;;9.70;99.90;;;;;;4998236;28;20041;-73
2023/12/24 09:02:06;;;;;;;0.22;0.20;;;9.70;99.90;;;;;;4998600;28;20031;-73
2023/12/24 09:04:31;;;;;;;0.10;0.10;;;9.70;99.90;;;;;;4998581;28;20045;-73
2023/12/24 09:06:57;;;;;;;0.10;0.10;;;9.80;99.90;;;;;;4999584;28;20022;-73
2023/12/24 09:09:23;;;;;;;0.85;0.22;;;9.80;99.90;;;;;;4998169;28;20173;-73
2023/12/24 09:11:49;;;;;;;0.20;0.20;;;9.80;99.90;;;;;;4998684;28;20026;-73
2023/12/24 09:14:15;;;;;;;0.15;0.10;;;9.90;99.90;;;;;;4997942;28;20117;-73
2023/12/24 09:16:40;;;;;;;2.08;0.10;;;9.90;99.90;;;;;;4998068;28;20046;-73
2023/12/24 09:19:06;;;;;;;0.13;0.13;;;9.90;99.90;;;;;;4998576;28;20053;-72
2023/12/24 09:21:32;;;;;;;0.70;0.20;;;9.90;99.90;;;;;;4999480;28;20095;-72
2023/12/24 09:23:58;;;;;;;0.43;0.10;;;9.90;99.90;;;;;;4997541;28;20018;-72
2023/12/24 09:26:24;;;;;;;0.20;0.00;;;9.90;99.90;;;;;;4997622;28;20049;-72
2023/12/24 09:28:50;;;;;;;0.20;0.15;;;9.90;99.90;;;;;;4998136;28;20034;-73
2023/12/24 09:31:15;;;;;;;1.70;0.10;;;9.90;99.90;;;;;;4997678;28;20026;-73
2023/12/24 09:33:41;;;;;;;0.30;0.10;;;9.90;99.90;;;;;;4998418;28;20030;-73
2023/12/24 09:36:07;;;;;;;0.10;0.10;;;10.00;99.90;;;;;;4996535;28;20022;-73
2023/12/24 09:38:34;;;;;;;0.20;0.20;;;10.00;99.90;;;;;;4997476;28;20114;-73
2023/12/24 09:41:00;;;;;;;0.20;0.20;;;10.00;99.90;;;;;;4997873;28;20022;-72
2023/12/24 09:43:30;;;;;;;0.45;0.13;;;10.00;99.90;;;;;;4997734;28;20148;-73
2023/12/24 09:45:56;;;;;;;0.35;0.35;;;10.00;99.90;;;;;;4998119;28;20033;-74
2023/12/24 09:48:22;;;;;;;1.20;0.82;;;10.00;99.90;;;;;;4997577;28;20026;-71
2023/12/24 09:50:48;;;;;;;0.00;0.00;;;10.10;99.90;;;;;;4997365;28;20028;-71
2023/12/24 09:53:14;;;;;;;0.38;0.25;;;10.10;99.90;;;;;;4997997;28;20037;-70
2023/12/24 09:55:40;;;;;;;1.05;0.30;;;10.00;99.90;;;;;;4997952;28;20034;-71
2023/12/24 09:58:06;;;;;;;1.67;0.10;;;10.10;99.90;;;;;;4997459;28;20026;-72
2023/12/24 10:00:31;;;;;;;0.98;0.10;;;10.10;99.90;;;;;;4998335;28;20037;-73
2023/12/24 10:02:57;;;;;;;0.10;0.03;;;10.10;99.90;;;;;;5000285;28;20014;-72
2023/12/24 10:05:22;;;;;;;0.10;0.10;;;10.10;99.90;;;;;;4998430;28;20019;-70
2023/12/24 10:07:48;;;;;;;0.10;0.10;;;10.10;99.90;;;;;;4997240;28;20034;-72
2023/12/24 10:10:13;;;;;;;0.57;0.50;;;10.10;99.90;;;;;;4997225;28;20121;-71
2023/12/24 10:12:40;;;;;;;0.17;0.13;;;10.20;99.90;;;;;;4997709;28;20053;-71
2023/12/24 10:15:06;;;;;;;0.17;0.10;;;10.20;99.90;;;;;;4997986;28;20108;-71
2023/12/24 10:17:34;;;;;;;1.60;0.73;;;10.20;99.90;;;;;;4998026;28;20065;-71
2023/12/24 10:20:03;;;;;;;1.05;0.20;;;10.10;99.90;;;;;;4996942;28;20023;-72
2023/12/24 10:22:29;;;;;;;0.25;0.03;;;10.20;99.90;;;;;;4997431;28;20022;-72
2023/12/24 10:25:06;;;;;;;0.10;0.10;;;10.20;99.90;;;;;;4998413;28;20033;-71
2023/12/24 10:27:32;;;;;;;0.20;0.20;;;10.20;99.90;;;;;;4997505;28;20023;-73
2023/12/24 10:30:09;;;;;;;0.43;0.20;;;10.20;99.90;;;;;;4997545;28;20030;-72
2023/12/24 10:32:35;;;;;;;0.22;0.08;;;10.30;99.90;;;;;;4997787;28;20101;-73
2023/12/24 10:35:00;;;;;;;1.23;0.13;;;10.30;99.90;;;;;;4997732;28;20030;-73
2023/12/24 10:37:29;;;;;;;0.98;0.28;;;10.30;99.90;;;;;;4997762;28;20053;-73
2023/12/24 10:40:09;;;;;;;0.15;0.10;;;10.30;99.90;;;;;;4997990;28;20022;-73
2023/12/24 10:42:39;;;;;;;1.65;0.10;;;10.30;99.90;;;;;;4999860;28;20030;-73
2023/12/24 10:45:05;;;;;;;0.28;0.00;;;10.40;99.90;;;;;;4998481;28;20023;-73
2023/12/24 10:47:31;;;;;;;0.70;0.10;;;10.40;99.90;;;;;;5000751;28;20026;-74
2023/12/24 10:49:57;;;;;;;1.77;0.10;;;10.40;99.90;;;;;;5001938;28;20033;-74
2023/12/24 10:52:22;;;;;;;0.00;0.00;;;10.40;99.90;;;;;;5002686;28;20026;-74
2023/12/24 10:54:48;;;;;;;0.65;0.10;;;10.40;99.90;;;;;;5017805;28;20033;-74
2023/12/24 10:57:51;;;;;;;0.68;0.10;;;10.50;99.90;;;;;;5002618;28;20057;-73
2023/12/24 11:00:17;;;;;;;0.10;0.03;;;10.50;99.90;;;;;;5029973;23;20042;-70
2023/12/24 11:02:45;;;;;;;0.40;0.10;;;10.50;99.90;;;;;;5036213;28;20026;-70
2023/12/24 11:05:10;;;;;;;0.20;0.20;;;10.50;99.90;;;;;;5019768;28;20022;-70
2023/12/24 11:07:45;;;;;;;0.25;0.20;;;10.50;99.90;;;;;;5036959;28;20030;-70
2023/12/24 11:10:43;;;;;;;0.10;0.10;;;10.50;99.90;;;;;;5020467;28;20025;-70
2023/12/24 11:13:31;;;;;;;0.20;0.03;;;10.60;99.90;;;;;;5020828;28;20018;-70
2023/12/24 11:15:58;;;;;;;0.40;0.10;;;10.50;99.90;;;;;;5020277;28;20030;-70
2023/12/24 11:18:43;;;;;;;0.40;0.20;;;10.50;99.90;;;;;;5020397;28;20026;-70
2023/12/24 11:21:14;;;;;;;0.10;0.10;;;10.50;99.90;;;;;;5019310;28;20022;-70
2023/12/24 11:23:40;;;;;;;0.05;0.05;;;10.50;99.90;;;;;;5020373;28;20125;-70
2023/12/24 11:26:32;;;;;;;0.13;0.10;;;10.40;99.90;;;;;;5020203;28;20032;-70
2023/12/24 11:28:58;;;;;;;;;;;10.50;99.90;;;;;;5018465;28;20034;-71
2023/12/24 11:31:27;;;;;;;0.10;0.00;;;10.50;99.90;;;;;;5019345;28;19905;-70
2023/12/24 11:33:55;;;;;;;0.05;0.03;;;10.50;99.90;;;;;;5020087;28;20044;-70
2023/12/24 11:36:22;;;;;;;0.10;0.10;;;10.50;99.90;;;;;;5020048;28;20034;-70
2023/12/24 11:38:55;;;;;;;0.30;0.00;;;10.50;99.90;;;;;;5020025;28;20082;-70
2023/12/24 11:41:21;;;;;;;0.10;0.10;;;10.50;99.90;;;;;;5019206;28;20029;-70
2023/12/24 11:43:54;;;;;;;0.10;0.10;;;10.40;99.90;;;;;;5019059;28;20076;-70
2023/12/24 11:46:21;;;;;;;0.35;0.35;;;10.40;99.90;;;;;;5019757;28;20022;-70
2023/12/24 11:48:47;;;;;;;0.00;0.00;;;10.30;99.90;;;;;;5019767;28;20033;-70
2023/12/24 11:51:12;;;;;;;0.00;0.00;;;10.40;99.90;;;;;;5019771;28;20026;-70
2023/12/24 11:53:40;;;;;;;0.00;0.00;;;10.40;99.90;;;;;;5018869;28;20026;-70
2023/12/24 11:56:13;;;;;;;0.20;0.10;;;10.40;99.90;;;;;;5019672;28;20101;-71
2023/12/24 11:58:59;;;;;;;2.47;0.50;;;10.40;99.90;;;;;;5017727;28;20036;-69
2023/12/24 12:01:34;;;;;;;0.10;0.10;;;10.50;99.90;;;;;;5019644;28;20037;-70
2023/12/24 12:04:02;;;;;;;0.45;0.25;;;10.50;99.90;;;;;;5019604;28;20045;-70
2023/12/24 12:06:35;;;;;;;0.88;0.40;;;10.50;99.90;;;;;;5019435;28;20029;-70
2023/12/24 12:09:06;;;;;;;0.10;0.10;;;10.50;99.90;;;;;;5018538;28;20048;-70
2023/12/24 12:11:31;;;;;;;0.43;0.40;;;10.50;99.90;;;;;;5019572;28;20056;-70
2023/12/24 12:13:59;;;;;;;0.38;0.20;;;10.50;99.90;;;;;;5018482;28;20124;-70
2023/12/24 12:16:24;;;;;;;0.10;0.10;;;10.50;99.90;;;;;;5019601;28;20032;-70
2023/12/24 12:18:50;;;;;;;1.05;0.20;;;10.50;99.90;;;;;;5019049;28;20022;-70
2023/12/24 12:21:16;;;;;;;0.25;0.10;;;10.60;99.90;;;;;;5018340;28;20080;-70
2023/12/24 12:23:41;;;;;;;0.13;0.13;;;10.60;99.90;;;;;;5018236;28;20022;-70
2023/12/24 12:26:07;;;;;;;0.80;0.10;;;10.60;99.90;;;;;;5018612;28;20022;-70
2023/12/24 12:28:34;;;;;;;0.25;0.10;;;10.70;99.90;;;;;;5019041;28;20072;-71
2023/12/24 12:31:00;;;;;;;3.15;0.30;;;10.70;99.90;;;;;;5018910;28;20100;-71
2023/12/24 12:33:26;;;;;;;1.08;0.20;;;10.70;99.90;;;;;;5019042;28;20117;-70
2023/12/24 12:35:52;;;;;;;5.70;1.23;;;10.70;99.90;;;;;;5018703;28;20109;-70
2023/12/24 12:38:18;;;;;;;0.45;0.30;;;10.70;99.90;;;;;;5018781;28;20106;-70
2023/12/24 12:40:43;;;;;;;0.20;0.17;;;10.70;99.90;;;;;;5017829;28;20041;-70
2023/12/24 12:43:08;;;;;;;0.30;0.10;;;10.60;99.90;;;;;;5018928;28;20065;-70
2023/12/24 12:45:37;;;;;;;0.05;0.05;;;10.60;99.90;;;;;;5018215;28;20022;-70
2023/12/24 12:48:03;;;;;;;0.20;0.10;;;10.50;99.90;;;;;;5018776;28;20037;-69
2023/12/24 12:50:28;;;;;;;0.40;0.13;;;10.50;99.90;;;;;;5017692;28;20030;-70